Forty Two — WDD4780 — position and weather

sailwx.info

Track history (hours):
 
Tides and Currents Weather Stations Pressure Air Temp Water Temp Dewpoint Dewpoint Depression Visibility Wind Speed Wind Dir Waves Ship Positions

Forty Two

Owner: allen, christopher h, port angeles, WA. More information available from US FCC via Universal Licensing System and Coast Guard Vessel Documentation Center.

Last reported at 2017-Aug-19 07:37 UTC. Time now 2017-Aug-19 10:57 UTC.
Position N 29°48' W 093°21'.

Length 38 m.

Type: Passenger vessel. MMSI: 367455780.

Date/timePositionNaut miles runAvg speedWind from/ knotsBaromVisibWave heightAir tempDewpointWater temp
2017-Aug-19 07:37N 29°48' W 093°21'1 9.1
2017-Aug-19 07:30N 29°49' W 093°21'1 1.5
2017-Aug-19 06:59N 29°49' W 093°20'0 0.0
2017-Aug-19 06:30N 29°49' W 093°20'0 0.0
2017-Aug-19 05:58N 29°49' W 093°20'0 0.0
2017-Aug-19 05:28N 29°49' W 093°20'0 0.0
2017-Aug-19 04:58N 29°49' W 093°20'0 0.0
2017-Aug-19 04:26N 29°49' W 093°20'1 1.3
2017-Aug-19 03:59N 29°49' W 093°21'0 0.0
2017-Aug-19 03:30N 29°49' W 093°21'0 0.0
2017-Aug-19 03:00N 29°49' W 093°21'0 0.0
2017-Aug-19 02:30N 29°49' W 093°21'0 0.0
2017-Aug-19 02:00N 29°49' W 093°21'0 0.0
2017-Aug-19 01:29N 29°49' W 093°21'0 0.0
2017-Aug-19 01:00N 29°49' W 093°21'0 0.0
2017-Aug-19 00:26N 29°49' W 093°21'0 0.0
2017-Aug-18 23:59N 29°49' W 093°21'57 9.9
2017-Aug-18 18:15N 29°36' W 092°17'414.4
2017-Aug-18 18:00N 29°40' W 092°15'611.6
2017-Aug-18 17:30N 29°45' W 092°13'4 7.2
2017-Aug-18 17:00N 29°47' W 092°09'2 3.2
2017-Aug-18 16:30N 29°47' W 092°11'0 0.0
2017-Aug-18 16:00N 29°47' W 092°11'0 0.0
2017-Aug-18 15:30N 29°47' W 092°11'0 0.0
2017-Aug-18 15:00N 29°47' W 092°11'0 0.0
2017-Aug-18 14:00N 29°47' W 092°11'0 0.0
2017-Aug-18 13:30N 29°47' W 092°11'0 0.0
2017-Aug-18 13:00N 29°47' W 092°11'0 0.0
2017-Aug-18 12:30N 29°47' W 092°11'0 0.0
2017-Aug-18 12:00N 29°47' W 092°11'0 0.0
2017-Aug-18 11:30N 29°47' W 092°11'0 0.0
2017-Aug-18 11:00N 29°47' W 092°11'0 0.0
2017-Aug-18 10:30N 29°47' W 092°11'0 0.0
2017-Aug-18 10:00N 29°47' W 092°11'0 0.0
2017-Aug-18 09:30N 29°47' W 092°11'0 0.0
2017-Aug-18 09:00N 29°47' W 092°11'0 0.0
2017-Aug-18 02:00N 29°47' W 092°11'0 0.0
2017-Aug-18 01:31N 29°47' W 092°11'0 0.0
2017-Aug-18 01:00N 29°47' W 092°11'0 0.0
2017-Aug-18 00:30N 29°47' W 092°11'0 0.0
2017-Aug-18 00:00N 29°47' W 092°11'0 0.0
2017-Aug-17 23:30N 29°47' W 092°11'0 0.0
2017-Aug-17 23:00N 29°47' W 092°11'0 0.0
2017-Aug-17 22:31N 29°47' W 092°11'0 0.0
2017-Aug-17 22:00N 29°47' W 092°11'0 0.0
2017-Aug-17 21:31N 29°47' W 092°11'0 0.0
2017-Aug-17 21:00N 29°47' W 092°11'0 0.0
2017-Aug-17 20:30N 29°47' W 092°11'0 0.0
2017-Aug-17 20:00N 29°47' W 092°11'0 0.0
2017-Aug-17 19:31N 29°47' W 092°11'0 0.0
2017-Aug-17 19:01N 29°47' W 092°11'0 0.0
2017-Aug-17 18:30N 29°47' W 092°11'0 0.0
2017-Aug-17 18:00N 29°47' W 092°11'0 0.0
2017-Aug-17 17:30N 29°47' W 092°11'0 0.0
2017-Aug-17 17:00N 29°47' W 092°11'0 0.0
2017-Aug-17 16:30N 29°47' W 092°11'0 0.0
2017-Aug-17 16:00N 29°47' W 092°11'1 2.5
2017-Aug-17 15:30N 29°47' W 092°10'0 0.8
2017-Aug-17 15:00N 29°47' W 092°09'0 0.0
2017-Aug-17 14:30N 29°47' W 092°09'0 0.0
2017-Aug-17 14:00N 29°47' W 092°09'2 3.2
2017-Aug-17 13:30N 29°47' W 092°11'0 0.0
2017-Aug-17 13:00N 29°47' W 092°11'0 0.0
2017-Aug-17 12:30N 29°47' W 092°11'0 0.0
2017-Aug-17 12:00N 29°47' W 092°11'0 0.0
2017-Aug-17 11:30N 29°47' W 092°11'0 0.0
2017-Aug-17 11:00N 29°47' W 092°11'0 0.0
2017-Aug-17 10:30N 29°47' W 092°11'0 0.0
2017-Aug-17 10:00N 29°47' W 092°11'0 0.0
2017-Aug-17 09:30N 29°47' W 092°11'0 0.0
2017-Aug-17 09:00N 29°47' W 092°11'0 0.0
2017-Aug-17 08:30N 29°47' W 092°11'0 0.0
2017-Aug-17 08:00N 29°47' W 092°11'0 0.0
2017-Aug-17 07:30N 29°47' W 092°11'0 0.0
2017-Aug-17 07:00N 29°47' W 092°11'0 0.0
2017-Aug-17 04:21N 29°47' W 092°11'0 0.0
2017-Aug-17 04:00N 29°47' W 092°11'611.5
2017-Aug-17 03:31N 29°42' W 092°15'7 0.2
2017-Aug-15 16:18N 29°36' W 092°18'412.7
2017-Aug-15 16:00N 29°39' W 092°16'612.4
2017-Aug-15 15:30N 29°45' W 092°13'3 5.6
2017-Aug-15 15:00N 29°47' W 092°11'0 0.0
2017-Aug-15 14:31N 29°47' W 092°11'0 0.0
2017-Aug-15 14:01N 29°47' W 092°11'0 0.0
2017-Aug-15 13:31N 29°47' W 092°11'0 0.0
2017-Aug-15 13:00N 29°47' W 092°11'0 0.0
2017-Aug-15 12:31N 29°47' W 092°11'0 0.0
2017-Aug-15 12:00N 29°47' W 092°11'0 0.0
2017-Aug-15 11:30N 29°47' W 092°11'0 0.0
2017-Aug-15 11:01N 29°47' W 092°11'0 0.0
2017-Aug-15 10:30N 29°47' W 092°11'0 0.0
2017-Aug-15 10:00N 29°47' W 092°11'0 0.0
2017-Aug-15 09:31N 29°47' W 092°11'0 0.0
2017-Aug-15 09:00N 29°47' W 092°11'0 0.0
2017-Aug-15 08:30N 29°47' W 092°11'0 0.0
2017-Aug-15 08:00N 29°47' W 092°11'0 0.0
2017-Aug-15 07:31N 29°47' W 092°11'0 0.0
2017-Aug-15 07:01N 29°47' W 092°11'0 0.0
2017-Aug-15 04:37N 29°47' W 092°11'0 0.0
2017-Aug-15 04:30N 29°47' W 092°11'0 0.0
2017-Aug-15 04:00N 29°47' W 092°11'0 0.0
2017-Aug-15 03:30N 29°47' W 092°11'0 0.0
2017-Aug-15 03:00N 29°47' W 092°11'0 0.0
2017-Aug-15 02:30N 29°47' W 092°11'0 0.0
2017-Aug-15 02:00N 29°47' W 092°11'0 0.0
2017-Aug-15 01:30N 29°47' W 092°11'0 0.0
2017-Aug-15 01:00N 29°47' W 092°11'0 0.0
2017-Aug-15 00:30N 29°47' W 092°11'0 0.0
2017-Aug-15 00:00N 29°47' W 092°11'0 0.0
2017-Aug-14 23:30N 29°47' W 092°11'0 0.0
2017-Aug-14 23:00N 29°47' W 092°11'0 0.0
2017-Aug-14 22:30N 29°47' W 092°11'0 0.0
2017-Aug-14 22:00N 29°47' W 092°11'0 0.0
2017-Aug-14 21:30N 29°47' W 092°11'0 0.0
2017-Aug-14 21:00N 29°47' W 092°11'0 0.0
2017-Aug-14 20:30N 29°47' W 092°11'0 0.0
2017-Aug-14 20:00N 29°47' W 092°11'0 0.0
2017-Aug-14 19:30N 29°47' W 092°11'0 0.0
2017-Aug-14 19:00N 29°47' W 092°11'0 0.0
2017-Aug-14 18:30N 29°47' W 092°11'0 0.0
2017-Aug-14 18:00N 29°47' W 092°11'0 0.0
2017-Aug-14 17:30N 29°47' W 092°11'0 0.0
2017-Aug-14 17:00N 29°47' W 092°11'0 0.0
2017-Aug-14 16:30N 29°47' W 092°11'0 0.0
2017-Aug-14 16:00N 29°47' W 092°11'0 0.0
2017-Aug-14 15:30N 29°47' W 092°11'0 0.0
2017-Aug-14 15:00N 29°47' W 092°11'2 3.2
2017-Aug-14 14:30N 29°47' W 092°09'0 0.0
2017-Aug-14 14:00N 29°47' W 092°09'0 0.0
2017-Aug-14 13:30N 29°47' W 092°09'1 2.4
2017-Aug-14 13:00N 29°47' W 092°11'1 1.0
2017-Aug-14 12:30N 29°47' W 092°11'0 0.0
2017-Aug-14 12:00N 29°47' W 092°11'0 0.0
2017-Aug-14 11:30N 29°47' W 092°11'0 0.0
2017-Aug-14 11:00N 29°47' W 092°11'0 0.0
2017-Aug-14 10:30N 29°47' W 092°11'0 0.0
2017-Aug-14 05:43N 29°47' W 092°11'0 0.0
2017-Aug-14 05:30N 29°47' W 092°11'0 0.0
2017-Aug-14 05:00N 29°47' W 092°11'0 0.0
2017-Aug-14 04:30N 29°47' W 092°11'0 0.0
2017-Aug-14 04:00N 29°47' W 092°11'0 0.0
2017-Aug-14 03:30N 29°47' W 092°11'4 8.0
2017-Aug-14 03:00N 29°44' W 092°14'816.7
2017-Aug-14 02:30N 29°36' W 092°17'3 6.6
2017-Aug-14 02:00N 29°33' W 092°18'0 0.1
2017-Aug-14 01:30N 29°33' W 092°18'3 0.1
2017-Aug-13 03:58N 29°35' W 092°18'714.9
2017-Aug-13 03:30N 29°42' W 092°15'612.2
2017-Aug-13 03:00N 29°47' W 092°11'0 0.1
2017-Aug-13 01:02N 29°47' W 092°11'0 0.0
2017-Aug-13 01:00N 29°47' W 092°11'0 0.0
2017-Aug-13 00:30N 29°47' W 092°11'0 0.0
2017-Aug-13 00:00N 29°47' W 092°11'0 0.0
2017-Aug-12 23:30N 29°47' W 092°11'0 0.0
2017-Aug-12 23:00N 29°47' W 092°11'0 0.0
2017-Aug-12 22:30N 29°47' W 092°11'0 0.0
2017-Aug-12 22:00N 29°47' W 092°11'0 0.0
2017-Aug-12 21:30N 29°47' W 092°11'0 0.0
2017-Aug-12 21:00N 29°47' W 092°11'0 0.0
2017-Aug-12 20:30N 29°47' W 092°11'0 0.0
2017-Aug-12 20:00N 29°47' W 092°11'0 0.0
2017-Aug-12 19:30N 29°47' W 092°11'0 0.0
2017-Aug-12 19:00N 29°47' W 092°11'0 0.0
2017-Aug-12 18:30N 29°47' W 092°11'0 0.0
2017-Aug-12 18:00N 29°47' W 092°11'0 0.0
2017-Aug-12 17:30N 29°47' W 092°11'0 0.0
2017-Aug-12 17:00N 29°47' W 092°11'0 0.3
2017-Aug-12 16:30N 29°47' W 092°11'0 0.3
2017-Aug-12 16:00N 29°47' W 092°11'0 0.0
2017-Aug-12 15:30N 29°47' W 092°11'0 0.0
2017-Aug-12 15:00N 29°47' W 092°11'0 0.0
2017-Aug-12 14:30N 29°47' W 092°11'0 0.0
2017-Aug-12 14:00N 29°47' W 092°11'0 0.0
2017-Aug-12 13:30N 29°47' W 092°11'0 0.0
2017-Aug-12 13:00N 29°47' W 092°11'0 0.0
2017-Aug-12 12:30N 29°47' W 092°11'0 0.0
2017-Aug-12 12:00N 29°47' W 092°11'0 0.0
2017-Aug-12 11:30N 29°47' W 092°11'0 0.0
2017-Aug-12 11:00N 29°47' W 092°11'0 0.0
2017-Aug-12 10:30N 29°47' W 092°11'0 0.0
2017-Aug-12 10:00N 29°47' W 092°11'0 0.0
2017-Aug-12 09:30N 29°47' W 092°11'0 0.0
2017-Aug-12 09:00N 29°47' W 092°11'0 0.0
2017-Aug-12 08:30N 29°47' W 092°11'0 0.0
2017-Aug-12 08:00N 29°47' W 092°11'0 0.0
2017-Aug-12 04:07N 29°47' W 092°11'0 0.4
2017-Aug-12 04:00N 29°47' W 092°11'611.3
2017-Aug-12 03:31N 29°42' W 092°15'816.1
2017-Aug-12 03:00N 29°35' W 092°18'1 0.0
2017-Aug-10 19:22N 29°36' W 092°18'617.8
2017-Aug-10 19:00N 29°42' W 092°15'612.3
2017-Aug-10 18:30N 29°46' W 092°11'1 1.3
2017-Aug-10 18:00N 29°47' W 092°11'0 0.0
2017-Aug-10 17:30N 29°47' W 092°11'0 0.0
2017-Aug-10 17:00N 29°47' W 092°11'0 0.0
2017-Aug-10 16:30N 29°47' W 092°11'0 0.0
2017-Aug-10 16:00N 29°47' W 092°11'0 0.0
2017-Aug-10 15:30N 29°47' W 092°11'0 0.0
2017-Aug-10 15:00N 29°47' W 092°11'0 0.0
2017-Aug-10 14:30N 29°47' W 092°11'0 0.0
2017-Aug-10 14:00N 29°47' W 092°11'0 0.0
2017-Aug-10 13:30N 29°47' W 092°11'0 0.0
2017-Aug-10 13:00N 29°47' W 092°11'0 0.0
2017-Aug-10 12:30N 29°47' W 092°11'0 0.0
2017-Aug-10 12:00N 29°47' W 092°11'0 0.0
2017-Aug-10 11:30N 29°47' W 092°11'0 0.0
2017-Aug-10 11:00N 29°47' W 092°11'0 0.0
2017-Aug-10 10:30N 29°47' W 092°11'0 0.0
2017-Aug-10 10:00N 29°47' W 092°11'0 0.0
2017-Aug-10 09:30N 29°47' W 092°11'0 0.0
2017-Aug-10 09:00N 29°47' W 092°11'0 0.0
2017-Aug-10 08:30N 29°47' W 092°11'0 0.0
2017-Aug-10 08:00N 29°47' W 092°11'0 0.0
2017-Aug-10 07:30N 29°47' W 092°11'0 0.0
2017-Aug-10 07:00N 29°47' W 092°11'0 0.0
2017-Aug-10 06:30N 29°47' W 092°11'0 0.0
2017-Aug-10 04:48N 29°47' W 092°11'0 0.0
2017-Aug-10 04:30N 29°47' W 092°11'0 0.0
2017-Aug-10 04:00N 29°47' W 092°11'0 0.0
2017-Aug-10 03:30N 29°47' W 092°11'0 0.0
2017-Aug-10 03:00N 29°47' W 092°11'0 0.0
2017-Aug-10 02:30N 29°47' W 092°11'0 0.0
2017-Aug-10 02:00N 29°47' W 092°11'0 0.0
2017-Aug-10 01:30N 29°47' W 092°11'0 0.0
2017-Aug-10 01:00N 29°47' W 092°11'0 0.0
2017-Aug-10 00:31N 29°47' W 092°11'0 0.0
2017-Aug-10 00:01N 29°47' W 092°11'0 0.0
2017-Aug-09 23:30N 29°47' W 092°11'0 0.0
2017-Aug-09 23:00N 29°47' W 092°11'0 0.0
2017-Aug-09 22:30N 29°47' W 092°11'0 0.0
2017-Aug-09 22:00N 29°47' W 092°11'0 0.0
2017-Aug-09 21:30N 29°47' W 092°11'0 0.0
2017-Aug-09 21:00N 29°47' W 092°11'0 0.0
2017-Aug-09 20:30N 29°47' W 092°11'0 0.0
2017-Aug-09 20:00N 29°47' W 092°11'0 0.0
2017-Aug-09 19:30N 29°47' W 092°11'0 0.0
2017-Aug-09 19:00N 29°47' W 092°11'0 0.0
2017-Aug-09 18:30N 29°47' W 092°11'0 0.0
2017-Aug-09 18:00N 29°47' W 092°11'0 0.0
2017-Aug-09 17:30N 29°47' W 092°11'0 0.0
2017-Aug-09 17:00N 29°47' W 092°11'0 0.0
2017-Aug-09 16:30N 29°47' W 092°11'0 0.0
2017-Aug-09 16:00N 29°47' W 092°11'0 0.0
2017-Aug-09 15:30N 29°47' W 092°11'0 0.0
2017-Aug-09 15:00N 29°47' W 092°11'0 0.0
2017-Aug-09 14:30N 29°47' W 092°11'0 0.0
2017-Aug-09 14:00N 29°47' W 092°11'0 0.0
2017-Aug-09 13:30N 29°47' W 092°11'0 0.0
2017-Aug-09 13:00N 29°47' W 092°11'0 0.0
2017-Aug-09 12:30N 29°47' W 092°11'0 0.0
2017-Aug-09 12:00N 29°47' W 092°11'0 0.0
2017-Aug-09 11:30N 29°47' W 092°11'0 0.0
2017-Aug-09 11:01N 29°47' W 092°11'0 0.0
2017-Aug-09 10:30N 29°47' W 092°11'0 0.0
2017-Aug-09 10:00N 29°47' W 092°11'0 0.0
2017-Aug-09 09:30N 29°47' W 092°11'0 0.0
2017-Aug-09 09:00N 29°47' W 092°11'0 0.0
2017-Aug-09 08:31N 29°47' W 092°11'  
Track history (hours):
 
Tides and Currents Weather Stations Pressure Air Temp Water Temp Dewpoint Dewpoint Depression Visibility Wind Speed Wind Dir Waves Ship Positions

Forty Two

Owner: allen, christopher h, port angeles, WA. More information available from US FCC via Universal Licensing System and Coast Guard Vessel Documentation Center.

Last reported at 2017-Aug-19 07:37 UTC. Time now 2017-Aug-19 10:57 UTC.
Position N 29°48' W 093°21'.

Length 38 m.

Type: Passenger vessel. MMSI: 367455780.

Date/timePositionNaut miles runAvg speedWind from/ knotsBaromVisibWave heightAir tempDewpointWater temp
2017-Aug-19 07:37N 29°48' W 093°21'1 9.1
2017-Aug-19 07:30N 29°49' W 093°21'1 1.5
2017-Aug-19 06:59N 29°49' W 093°20'0 0.0
2017-Aug-19 06:30N 29°49' W 093°20'0 0.0
2017-Aug-19 05:58N 29°49' W 093°20'0 0.0
2017-Aug-19 05:28N 29°49' W 093°20'0 0.0
2017-Aug-19 04:58N 29°49' W 093°20'0 0.0
2017-Aug-19 04:26N 29°49' W 093°20'1 1.3
2017-Aug-19 03:59N 29°49' W 093°21'0 0.0
2017-Aug-19 03:30N 29°49' W 093°21'0 0.0
2017-Aug-19 03:00N 29°49' W 093°21'0 0.0
2017-Aug-19 02:30N 29°49' W 093°21'0 0.0
2017-Aug-19 02:00N 29°49' W 093°21'0 0.0
2017-Aug-19 01:29N 29°49' W 093°21'0 0.0
2017-Aug-19 01:00N 29°49' W 093°21'0 0.0
2017-Aug-19 00:26N 29°49' W 093°21'0 0.0
2017-Aug-18 23:59N 29°49' W 093°21'57 9.9
2017-Aug-18 18:15N 29°36' W 092°17'414.4
2017-Aug-18 18:00N 29°40' W 092°15'611.6
2017-Aug-18 17:30N 29°45' W 092°13'4 7.2
2017-Aug-18 17:00N 29°47' W 092°09'2 3.2
2017-Aug-18 16:30N 29°47' W 092°11'0 0.0
2017-Aug-18 16:00N 29°47' W 092°11'0 0.0
2017-Aug-18 15:30N 29°47' W 092°11'0 0.0
2017-Aug-18 15:00N 29°47' W 092°11'0 0.0
2017-Aug-18 14:00N 29°47' W 092°11'0 0.0
2017-Aug-18 13:30N 29°47' W 092°11'0 0.0
2017-Aug-18 13:00N 29°47' W 092°11'0 0.0
2017-Aug-18 12:30N 29°47' W 092°11'0 0.0
2017-Aug-18 12:00N 29°47' W 092°11'0 0.0
2017-Aug-18 11:30N 29°47' W 092°11'0 0.0
2017-Aug-18 11:00N 29°47' W 092°11'0 0.0
2017-Aug-18 10:30N 29°47' W 092°11'0 0.0
2017-Aug-18 10:00N 29°47' W 092°11'0 0.0
2017-Aug-18 09:30N 29°47' W 092°11'0 0.0
2017-Aug-18 09:00N 29°47' W 092°11'0 0.0
2017-Aug-18 02:00N 29°47' W 092°11'0 0.0
2017-Aug-18 01:31N 29°47' W 092°11'0 0.0
2017-Aug-18 01:00N 29°47' W 092°11'0 0.0
2017-Aug-18 00:30N 29°47' W 092°11'0 0.0
2017-Aug-18 00:00N 29°47' W 092°11'0 0.0
2017-Aug-17 23:30N 29°47' W 092°11'0 0.0
2017-Aug-17 23:00N 29°47' W 092°11'0 0.0
2017-Aug-17 22:31N 29°47' W 092°11'0 0.0
2017-Aug-17 22:00N 29°47' W 092°11'0 0.0
2017-Aug-17 21:31N 29°47' W 092°11'0 0.0
2017-Aug-17 21:00N 29°47' W 092°11'0 0.0
2017-Aug-17 20:30N 29°47' W 092°11'0 0.0
2017-Aug-17 20:00N 29°47' W 092°11'0 0.0
2017-Aug-17 19:31N 29°47' W 092°11'0 0.0
2017-Aug-17 19:01N 29°47' W 092°11'0 0.0
2017-Aug-17 18:30N 29°47' W 092°11'0 0.0
2017-Aug-17 18:00N 29°47' W 092°11'0 0.0
2017-Aug-17 17:30N 29°47' W 092°11'0 0.0
2017-Aug-17 17:00N 29°47' W 092°11'0 0.0
2017-Aug-17 16:30N 29°47' W 092°11'0 0.0
2017-Aug-17 16:00N 29°47' W 092°11'1 2.5
2017-Aug-17 15:30N 29°47' W 092°10'0 0.8
2017-Aug-17 15:00N 29°47' W 092°09'0 0.0
2017-Aug-17 14:30N 29°47' W 092°09'0 0.0
2017-Aug-17 14:00N 29°47' W 092°09'2 3.2
2017-Aug-17 13:30N 29°47' W 092°11'0 0.0
2017-Aug-17 13:00N 29°47' W 092°11'0 0.0
2017-Aug-17 12:30N 29°47' W 092°11'0 0.0
2017-Aug-17 12:00N 29°47' W 092°11'0 0.0
2017-Aug-17 11:30N 29°47' W 092°11'0 0.0
2017-Aug-17 11:00N 29°47' W 092°11'0 0.0
2017-Aug-17 10:30N 29°47' W 092°11'0 0.0
2017-Aug-17 10:00N 29°47' W 092°11'0 0.0
2017-Aug-17 09:30N 29°47' W 092°11'0 0.0
2017-Aug-17 09:00N 29°47' W 092°11'0 0.0
2017-Aug-17 08:30N 29°47' W 092°11'0 0.0
2017-Aug-17 08:00N 29°47' W 092°11'0 0.0
2017-Aug-17 07:30N 29°47' W 092°11'0 0.0
2017-Aug-17 07:00N 29°47' W 092°11'0 0.0
2017-Aug-17 04:21N 29°47' W 092°11'0 0.0
2017-Aug-17 04:00N 29°47' W 092°11'611.5
2017-Aug-17 03:31N 29°42' W 092°15'7 0.2
2017-Aug-15 16:18N 29°36' W 092°18'412.7
2017-Aug-15 16:00N 29°39' W 092°16'612.4
2017-Aug-15 15:30N 29°45' W 092°13'3 5.6
2017-Aug-15 15:00N 29°47' W 092°11'0 0.0
2017-Aug-15 14:31N 29°47' W 092°11'0 0.0
2017-Aug-15 14:01N 29°47' W 092°11'0 0.0
2017-Aug-15 13:31N 29°47' W 092°11'0 0.0
2017-Aug-15 13:00N 29°47' W 092°11'0 0.0
2017-Aug-15 12:31N 29°47' W 092°11'0 0.0
2017-Aug-15 12:00N 29°47' W 092°11'0 0.0
2017-Aug-15 11:30N 29°47' W 092°11'0 0.0
2017-Aug-15 11:01N 29°47' W 092°11'0 0.0
2017-Aug-15 10:30N 29°47' W 092°11'0 0.0
2017-Aug-15 10:00N 29°47' W 092°11'0 0.0
2017-Aug-15 09:31N 29°47' W 092°11'0 0.0
2017-Aug-15 09:00N 29°47' W 092°11'0 0.0
2017-Aug-15 08:30N 29°47' W 092°11'0 0.0
2017-Aug-15 08:00N 29°47' W 092°11'0 0.0
2017-Aug-15 07:31N 29°47' W 092°11'0 0.0
2017-Aug-15 07:01N 29°47' W 092°11'0 0.0
2017-Aug-15 04:37N 29°47' W 092°11'0 0.0
2017-Aug-15 04:30N 29°47' W 092°11'0 0.0
2017-Aug-15 04:00N 29°47' W 092°11'0 0.0
2017-Aug-15 03:30N 29°47' W 092°11'0 0.0
2017-Aug-15 03:00N 29°47' W 092°11'0 0.0
2017-Aug-15 02:30N 29°47' W 092°11'0 0.0
2017-Aug-15 02:00N 29°47' W 092°11'0 0.0
2017-Aug-15 01:30N 29°47' W 092°11'0 0.0
2017-Aug-15 01:00N 29°47' W 092°11'0 0.0
2017-Aug-15 00:30N 29°47' W 092°11'0 0.0
2017-Aug-15 00:00N 29°47' W 092°11'0 0.0
2017-Aug-14 23:30N 29°47' W 092°11'0 0.0
2017-Aug-14 23:00N 29°47' W 092°11'0 0.0
2017-Aug-14 22:30N 29°47' W 092°11'0 0.0
2017-Aug-14 22:00N 29°47' W 092°11'0 0.0
2017-Aug-14 21:30N 29°47' W 092°11'0 0.0
2017-Aug-14 21:00N 29°47' W 092°11'0 0.0
2017-Aug-14 20:30N 29°47' W 092°11'0 0.0
2017-Aug-14 20:00N 29°47' W 092°11'0 0.0
2017-Aug-14 19:30N 29°47' W 092°11'0 0.0
2017-Aug-14 19:00N 29°47' W 092°11'0 0.0
2017-Aug-14 18:30N 29°47' W 092°11'0 0.0
2017-Aug-14 18:00N 29°47' W 092°11'0 0.0
2017-Aug-14 17:30N 29°47' W 092°11'0 0.0
2017-Aug-14 17:00N 29°47' W 092°11'0 0.0
2017-Aug-14 16:30N 29°47' W 092°11'0 0.0
2017-Aug-14 16:00N 29°47' W 092°11'0 0.0
2017-Aug-14 15:30N 29°47' W 092°11'0 0.0
2017-Aug-14 15:00N 29°47' W 092°11'2 3.2
2017-Aug-14 14:30N 29°47' W 092°09'0 0.0
2017-Aug-14 14:00N 29°47' W 092°09'0 0.0
2017-Aug-14 13:30N 29°47' W 092°09'1 2.4
2017-Aug-14 13:00N 29°47' W 092°11'1 1.0
2017-Aug-14 12:30N 29°47' W 092°11'0 0.0
2017-Aug-14 12:00N 29°47' W 092°11'0 0.0
2017-Aug-14 11:30N 29°47' W 092°11'0 0.0
2017-Aug-14 11:00N 29°47' W 092°11'0 0.0
2017-Aug-14 10:30N 29°47' W 092°11'0 0.0
2017-Aug-14 05:43N 29°47' W 092°11'0 0.0
2017-Aug-14 05:30N 29°47' W 092°11'0 0.0
2017-Aug-14 05:00N 29°47' W 092°11'0 0.0
2017-Aug-14 04:30N 29°47' W 092°11'0 0.0
2017-Aug-14 04:00N 29°47' W 092°11'0 0.0
2017-Aug-14 03:30N 29°47' W 092°11'4 8.0
2017-Aug-14 03:00N 29°44' W 092°14'816.7
2017-Aug-14 02:30N 29°36' W 092°17'3 6.6
2017-Aug-14 02:00N 29°33' W 092°18'0 0.1
2017-Aug-14 01:30N 29°33' W 092°18'3 0.1
2017-Aug-13 03:58N 29°35' W 092°18'714.9
2017-Aug-13 03:30N 29°42' W 092°15'612.2
2017-Aug-13 03:00N 29°47' W 092°11'0 0.1
2017-Aug-13 01:02N 29°47' W 092°11'0 0.0
2017-Aug-13 01:00N 29°47' W 092°11'0 0.0
2017-Aug-13 00:30N 29°47' W 092°11'0 0.0
2017-Aug-13 00:00N 29°47' W 092°11'0 0.0
2017-Aug-12 23:30N 29°47' W 092°11'0 0.0
2017-Aug-12 23:00N 29°47' W 092°11'0 0.0
2017-Aug-12 22:30N 29°47' W 092°11'0 0.0
2017-Aug-12 22:00N 29°47' W 092°11'0 0.0
2017-Aug-12 21:30N 29°47' W 092°11'0 0.0
2017-Aug-12 21:00N 29°47' W 092°11'0 0.0
2017-Aug-12 20:30N 29°47' W 092°11'0 0.0
2017-Aug-12 20:00N 29°47' W 092°11'0 0.0
2017-Aug-12 19:30N 29°47' W 092°11'0 0.0
2017-Aug-12 19:00N 29°47' W 092°11'0 0.0
2017-Aug-12 18:30N 29°47' W 092°11'0 0.0
2017-Aug-12 18:00N 29°47' W 092°11'0 0.0
2017-Aug-12 17:30N 29°47' W 092°11'0 0.0
2017-Aug-12 17:00N 29°47' W 092°11'0 0.3
2017-Aug-12 16:30N 29°47' W 092°11'0 0.3
2017-Aug-12 16:00N 29°47' W 092°11'0 0.0
2017-Aug-12 15:30N 29°47' W 092°11'0 0.0
2017-Aug-12 15:00N 29°47' W 092°11'0 0.0
2017-Aug-12 14:30N 29°47' W 092°11'0 0.0
2017-Aug-12 14:00N 29°47' W 092°11'0 0.0
2017-Aug-12 13:30N 29°47' W 092°11'0 0.0
2017-Aug-12 13:00N 29°47' W 092°11'0 0.0
2017-Aug-12 12:30N 29°47' W 092°11'0 0.0
2017-Aug-12 12:00N 29°47' W 092°11'0 0.0
2017-Aug-12 11:30N 29°47' W 092°11'0 0.0
2017-Aug-12 11:00N 29°47' W 092°11'0 0.0
2017-Aug-12 10:30N 29°47' W 092°11'0 0.0
2017-Aug-12 10:00N 29°47' W 092°11'0 0.0
2017-Aug-12 09:30N 29°47' W 092°11'0 0.0
2017-Aug-12 09:00N 29°47' W 092°11'0 0.0
2017-Aug-12 08:30N 29°47' W 092°11'0 0.0
2017-Aug-12 08:00N 29°47' W 092°11'0 0.0
2017-Aug-12 04:07N 29°47' W 092°11'0 0.4
2017-Aug-12 04:00N 29°47' W 092°11'611.3
2017-Aug-12 03:31N 29°42' W 092°15'816.1
2017-Aug-12 03:00N 29°35' W 092°18'1 0.0
2017-Aug-10 19:22N 29°36' W 092°18'617.8
2017-Aug-10 19:00N 29°42' W 092°15'612.3
2017-Aug-10 18:30N 29°46' W 092°11'1 1.3
2017-Aug-10 18:00N 29°47' W 092°11'0 0.0
2017-Aug-10 17:30N 29°47' W 092°11'0 0.0
2017-Aug-10 17:00N 29°47' W 092°11'0 0.0
2017-Aug-10 16:30N 29°47' W 092°11'0 0.0
2017-Aug-10 16:00N 29°47' W 092°11'0 0.0
2017-Aug-10 15:30N 29°47' W 092°11'0 0.0
2017-Aug-10 15:00N 29°47' W 092°11'0 0.0
2017-Aug-10 14:30N 29°47' W 092°11'0 0.0
2017-Aug-10 14:00N 29°47' W 092°11'0 0.0
2017-Aug-10 13:30N 29°47' W 092°11'0 0.0
2017-Aug-10 13:00N 29°47' W 092°11'0 0.0
2017-Aug-10 12:30N 29°47' W 092°11'0 0.0
2017-Aug-10 12:00N 29°47' W 092°11'0 0.0
2017-Aug-10 11:30N 29°47' W 092°11'0 0.0
2017-Aug-10 11:00N 29°47' W 092°11'0 0.0
2017-Aug-10 10:30N 29°47' W 092°11'0 0.0
2017-Aug-10 10:00N 29°47' W 092°11'0 0.0
2017-Aug-10 09:30N 29°47' W 092°11'0 0.0
2017-Aug-10 09:00N 29°47' W 092°11'0 0.0
2017-Aug-10 08:30N 29°47' W 092°11'0 0.0
2017-Aug-10 08:00N 29°47' W 092°11'0 0.0
2017-Aug-10 07:30N 29°47' W 092°11'0 0.0
2017-Aug-10 07:00N 29°47' W 092°11'0 0.0
2017-Aug-10 06:30N 29°47' W 092°11'0 0.0
2017-Aug-10 04:48N 29°47' W 092°11'0 0.0
2017-Aug-10 04:30N 29°47' W 092°11'0 0.0
2017-Aug-10 04:00N 29°47' W 092°11'0 0.0
2017-Aug-10 03:30N 29°47' W 092°11'0 0.0
2017-Aug-10 03:00N 29°47' W 092°11'0 0.0
2017-Aug-10 02:30N 29°47' W 092°11'0 0.0
2017-Aug-10 02:00N 29°47' W 092°11'0 0.0
2017-Aug-10 01:30N 29°47' W 092°11'0 0.0
2017-Aug-10 01:00N 29°47' W 092°11'0 0.0
2017-Aug-10 00:31N 29°47' W 092°11'0 0.0
2017-Aug-10 00:01N 29°47' W 092°11'0 0.0
2017-Aug-09 23:30N 29°47' W 092°11'0 0.0
2017-Aug-09 23:00N 29°47' W 092°11'0 0.0
2017-Aug-09 22:30N 29°47' W 092°11'0 0.0
2017-Aug-09 22:00N 29°47' W 092°11'0 0.0
2017-Aug-09 21:30N 29°47' W 092°11'0 0.0
2017-Aug-09 21:00N 29°47' W 092°11'0 0.0
2017-Aug-09 20:30N 29°47' W 092°11'0 0.0
2017-Aug-09 20:00N 29°47' W 092°11'0 0.0
2017-Aug-09 19:30N 29°47' W 092°11'0 0.0
2017-Aug-09 19:00N 29°47' W 092°11'0 0.0
2017-Aug-09 18:30N 29°47' W 092°11'0 0.0
2017-Aug-09 18:00N 29°47' W 092°11'0 0.0
2017-Aug-09 17:30N 29°47' W 092°11'0 0.0
2017-Aug-09 17:00N 29°47' W 092°11'0 0.0
2017-Aug-09 16:30N 29°47' W 092°11'0 0.0
2017-Aug-09 16:00N 29°47' W 092°11'0 0.0
2017-Aug-09 15:30N 29°47' W 092°11'0 0.0
2017-Aug-09 15:00N 29°47' W 092°11'0 0.0
2017-Aug-09 14:30N 29°47' W 092°11'0 0.0
2017-Aug-09 14:00N 29°47' W 092°11'0 0.0
2017-Aug-09 13:30N 29°47' W 092°11'0 0.0
2017-Aug-09 13:00N 29°47' W 092°11'0 0.0
2017-Aug-09 12:30N 29°47' W 092°11'0 0.0
2017-Aug-09 12:00N 29°47' W 092°11'0 0.0
2017-Aug-09 11:30N 29°47' W 092°11'0 0.0
2017-Aug-09 11:01N 29°47' W 092°11'0 0.0
2017-Aug-09 10:30N 29°47' W 092°11'0 0.0
2017-Aug-09 10:00N 29°47' W 092°11'0 0.0
2017-Aug-09 09:30N 29°47' W 092°11'0 0.0
2017-Aug-09 09:00N 29°47' W 092°11'0 0.0
2017-Aug-09 08:31N 29°47' W 092°11'  

Dump ship's entire track history